Virtual Washington ARTCC

Weather

KBWI 150454Z 00000KT 1 3/4SM BR OVC003 09/08 A3019 RMK AO2 RAE39 SLP224 VIS NE-SE 1 P0001 T00890083 400890006
KDCA 150454Z 01008KT 2 1/2SM -RA BR OVC005 09/07 A3019 RMK AO2 P0000 T00890072
KIAD 150452Z 36007KT 4SM -RA BR SCT004 OVC007 06/06 A3018 RMK AO2 RAB40 SLP222 P0000 T00610056 400721022
KORF 150451Z 14008KT 8SM -RA BKN060 OVC100 15/14 A3008 RMK AO2 SLP185 P0003 T01500144 401500017
KRDU 150509Z VRB04KT 1/4SM RA BR OVC002 09/09 A3001 RMK AO2 SFC VIS 1 P0004 T00890089 RVRNO $

TOP FIVE CONTROLLERS


We're sorry, this feature is currently unavailable.

Events



ZDC Activity

No controllers online.

News



The information contained on all pages of this website is to be used for flight simulation purposes only on the VATSIM network. It is not intended nor should it be used for real world navigation.This site is not affiliated with the FAA, the actual Washington Center or any governing aviation body. All content contained herein is approved only for use on the VATSIM network. ©2016 Virtual Washington ARTCC -- Source Code © 2016-2017 W. Guisbond and R. Rump.
By using this website you agree to all VATSIM Privacy Regulations as can be found on https://www.vatsim.net/documents/privacy-policy. This website uses cookie$